createdAt,value
2023-05-02T00:00:11.075Z,7.44
2023-05-02T00:01:11.074Z,5.36
2023-05-02T00:02:11.147Z,5.10
2023-05-02T00:03:11.147Z,5.22
2023-05-02T00:04:11.170Z,5.64
2023-05-02T00:05:11.079Z,6.18
2023-05-02T00:06:11.121Z,6.58
2023-05-02T00:07:11.080Z,5.00
2023-05-02T00:08:11.096Z,5.72
2023-05-02T00:09:11.088Z,4.64
2023-05-02T00:10:11.077Z,5.52
2023-05-02T00:11:11.083Z,5.62
2023-05-02T00:12:11.087Z,10.50
2023-05-02T00:13:11.120Z,4.96
2023-05-02T00:14:11.081Z,6.04
2023-05-02T00:15:11.078Z,5.40
2023-05-02T00:16:11.081Z,6.56
2023-05-02T00:17:15.093Z,7.68
2023-05-02T00:18:11.190Z,5.10
2023-05-02T00:19:11.081Z,4.78
2023-05-02T00:20:11.076Z,6.14
2023-05-02T00:21:11.078Z,6.74
2023-05-02T00:22:11.078Z,6.96
2023-05-02T00:23:11.075Z,6.72
2023-05-02T00:24:11.086Z,6.10
2023-05-02T00:25:11.081Z,7.04
2023-05-02T00:26:11.077Z,8.80
2023-05-02T00:27:11.079Z,9.36
2023-05-02T00:28:11.086Z,6.04
2023-05-02T00:29:11.076Z,10.88
2023-05-02T00:30:11.078Z,6.62
2023-05-02T00:31:11.188Z,7.82
2023-05-02T00:32:11.077Z,6.00
2023-05-02T00:33:11.165Z,7.38
2023-05-02T00:34:11.082Z,5.14
2023-05-02T00:35:11.081Z,5.08
2023-05-02T00:36:15.081Z,7.88
2023-05-02T00:37:11.081Z,5.40
2023-05-02T00:38:11.076Z,5.66
2023-05-02T00:39:11.086Z,6.58
2023-05-02T00:40:11.082Z,5.16
2023-05-02T00:41:11.080Z,8.84
2023-05-02T00:42:11.089Z,5.64
2023-05-02T00:43:11.087Z,7.16
2023-05-02T00:44:11.080Z,9.38
2023-05-02T00:45:11.086Z,7.14
2023-05-02T00:46:11.114Z,6.98
2023-05-02T00:47:11.081Z,6.10
2023-05-02T00:48:11.201Z,7.86
2023-05-02T00:49:11.083Z,8.30
2023-05-02T00:50:11.081Z,7.46
2023-05-02T00:51:11.079Z,8.62
2023-05-02T00:52:11.096Z,5.64
2023-05-02T00:53:11.140Z,7.14
2023-05-02T00:54:11.082Z,7.02
2023-05-02T00:55:11.084Z,5.58
2023-05-02T00:56:11.082Z,6.06
2023-05-02T00:57:11.086Z,5.32
2023-05-02T00:58:12.100Z,7.84
2023-05-02T00:59:12.091Z,6.08
2023-05-02T01:00:11.085Z,6.16
2023-05-02T01:01:19.088Z,7.54
2023-05-02T01:02:19.057Z,7.36
2023-05-02T01:03:19.210Z,6.56
2023-05-02T01:04:19.148Z,8.70
2023-05-02T01:05:20.090Z,6.18
2023-05-02T01:06:21.104Z,9.20
2023-05-02T01:07:19.069Z,4.58
2023-05-02T01:08:18.101Z,6.68
2023-05-02T01:09:19.062Z,8.96
2023-05-02T01:10:19.059Z,7.12
2023-05-02T01:11:21.058Z,6.72
2023-05-02T01:12:19.064Z,5.70
2023-05-02T01:13:19.062Z,6.06
2023-05-02T01:14:12.075Z,4.88
2023-05-02T01:15:11.074Z,9.12
2023-05-02T01:16:12.081Z,5.02
2023-05-02T01:17:12.070Z,7.44
2023-05-02T01:18:15.059Z,9.50
2023-05-02T01:19:19.062Z,6.52
2023-05-02T01:20:16.078Z,5.68
2023-05-02T01:21:11.062Z,6.02
2023-05-02T01:22:11.060Z,6.20
2023-05-02T01:23:19.064Z,6.56
2023-05-02T01:24:19.081Z,7.10
2023-05-02T01:25:21.062Z,6.60
2023-05-02T01:26:19.062Z,6.12
2023-05-02T01:27:23.075Z,6.98
2023-05-02T01:28:19.087Z,7.68
2023-05-02T01:29:11.072Z,12.16
2023-05-02T01:30:12.060Z,6.68
2023-05-02T01:31:11.126Z,11.10
2023-05-02T01:32:11.064Z,7.48
2023-05-02T01:33:11.121Z,5.60
2023-05-02T01:34:11.060Z,8.92
2023-05-02T01:35:11.063Z,6.10
2023-05-02T01:36:11.060Z,5.92
2023-05-02T01:37:12.063Z,8.38
2023-05-02T01:38:14.068Z,7.24
2023-05-02T01:39:13.063Z,6.00
2023-05-02T01:40:11.066Z,6.40
2023-05-02T01:41:11.074Z,9.44
2023-05-02T01:42:11.070Z,6.76
2023-05-02T01:43:11.067Z,5.08
2023-05-02T01:44:11.077Z,7.08
2023-05-02T01:45:11.064Z,4.34
2023-05-02T01:46:11.078Z,9.96
2023-05-02T01:47:11.254Z,6.46
2023-05-02T01:48:11.099Z,7.36
2023-05-02T01:49:11.075Z,7.06
2023-05-02T01:50:12.072Z,8.44
2023-05-02T01:51:11.066Z,6.06
2023-05-02T01:52:12.066Z,7.24
2023-05-02T01:53:11.072Z,4.68
2023-05-02T01:54:12.067Z,7.48
2023-05-02T01:55:13.072Z,9.90
2023-05-02T01:56:11.078Z,12.02
2023-05-02T01:57:12.077Z,8.44
2023-05-02T01:58:11.077Z,8.86
2023-05-02T01:59:12.069Z,8.16
2023-05-02T02:00:11.067Z,8.30
2023-05-02T02:01:11.188Z,7.42
2023-05-02T02:02:11.071Z,5.22
2023-05-02T02:03:11.105Z,12.72
2023-05-02T02:04:11.148Z,6.66
2023-05-02T02:05:11.093Z,6.60
2023-05-02T02:06:11.090Z,10.92
2023-05-02T02:07:11.091Z,9.82
2023-05-02T02:08:11.072Z,10.80
2023-05-02T02:09:11.073Z,10.84
2023-05-02T02:10:11.097Z,6.88
2023-05-02T02:11:12.071Z,11.32
2023-05-02T02:12:19.070Z,9.44
2023-05-02T02:13:17.080Z,5.72
2023-05-02T02:14:14.079Z,4.90
2023-05-02T02:15:19.076Z,8.56
2023-05-02T02:16:13.113Z,11.24
2023-05-02T02:17:19.080Z,12.24
2023-05-02T02:18:18.110Z,9.78
2023-05-02T02:19:13.074Z,6.60
2023-05-02T02:20:11.068Z,8.02
2023-05-02T02:21:11.071Z,10.76
2023-05-02T02:22:13.068Z,5.66
2023-05-02T02:23:11.077Z,8.08
2023-05-02T02:24:11.091Z,10.18
2023-05-02T02:25:12.086Z,6.50
2023-05-02T02:26:11.085Z,10.88
2023-05-02T02:27:11.089Z,7.78
2023-05-02T02:28:11.069Z,10.80
2023-05-02T02:29:11.076Z,8.16
2023-05-02T02:30:11.073Z,10.32
2023-05-02T02:31:11.129Z,7.20
2023-05-02T02:32:11.074Z,11.74
2023-05-02T02:33:11.126Z,13.16
2023-05-02T02:34:11.073Z,9.12
2023-05-02T02:35:11.072Z,10.32
2023-05-02T02:36:17.083Z,13.92
2023-05-02T02:37:16.072Z,11.16
2023-05-02T02:38:21.076Z,7.56
2023-05-02T02:39:19.088Z,7.60
2023-05-02T02:40:18.076Z,12.74
2023-05-02T02:41:21.075Z,10.92
2023-05-02T02:42:21.078Z,9.72
2023-05-02T02:43:18.096Z,11.38
2023-05-02T02:44:19.080Z,10.74
2023-05-02T02:45:19.076Z,18.62
2023-05-02T02:46:19.133Z,9.22
2023-05-02T02:47:19.073Z,8.02
2023-05-02T02:48:19.211Z,11.20
2023-05-02T02:49:21.081Z,13.16
2023-05-02T02:50:19.113Z,13.48
2023-05-02T02:51:15.069Z,11.84
2023-05-02T02:52:19.077Z,11.64
2023-05-02T02:53:19.080Z,14.96
2023-05-02T02:54:25.800Z,16.38
2023-05-02T02:55:21.078Z,17.24
2023-05-02T02:56:15.083Z,21.60
2023-05-02T02:57:17.074Z,15.46
2023-05-02T02:58:19.075Z,22.92
2023-05-02T02:59:19.103Z,17.10
2023-05-02T03:00:15.070Z,19.64
2023-05-02T03:01:14.114Z,12.30
2023-05-02T03:02:12.097Z,16.46
2023-05-02T03:03:11.136Z,14.20
2023-05-02T03:04:11.168Z,16.60
2023-05-02T03:05:11.080Z,15.50
2023-05-02T03:06:11.112Z,14.48
2023-05-02T03:07:11.072Z,21.18
2023-05-02T03:08:11.074Z,17.78
2023-05-02T03:09:17.073Z,13.64
2023-05-02T03:10:11.080Z,16.50
2023-05-02T03:11:11.089Z,15.96
2023-05-02T03:12:11.072Z,18.14
2023-05-02T03:13:11.106Z,19.80
2023-05-02T03:14:11.075Z,16.86
2023-05-02T03:15:19.076Z,19.74
2023-05-02T03:16:19.210Z,17.78
2023-05-02T03:17:12.077Z,22.04
2023-05-02T03:18:11.115Z,14.76
2023-05-02T03:19:11.075Z,24.66
2023-05-02T03:20:11.082Z,19.66
2023-05-02T03:21:11.089Z,18.34
2023-05-02T03:22:11.082Z,19.14
2023-05-02T03:23:11.109Z,21.16
2023-05-02T03:24:11.084Z,20.20
2023-05-02T03:25:11.120Z,15.20
2023-05-02T03:26:11.078Z,21.30
2023-05-02T03:27:11.086Z,20.04
2023-05-02T03:28:11.087Z,21.26
2023-05-02T03:29:11.077Z,14.86
2023-05-02T03:30:11.092Z,16.28
2023-05-02T03:31:11.135Z,20.32
2023-05-02T03:32:11.164Z,17.48
2023-05-02T03:33:12.150Z,18.54
2023-05-02T03:34:11.081Z,20.38
2023-05-02T03:35:11.082Z,18.42
2023-05-02T03:36:11.105Z,20.34
2023-05-02T03:37:11.082Z,22.16
2023-05-02T03:38:11.080Z,21.94
2023-05-02T03:39:11.087Z,19.62
2023-05-02T03:40:11.093Z,18.38
2023-05-02T03:41:11.082Z,22.16
2023-05-02T03:42:11.106Z,26.78
2023-05-02T03:43:11.079Z,21.00
2023-05-02T03:44:11.073Z,19.88
2023-05-02T03:45:11.084Z,26.92
2023-05-02T03:46:11.123Z,19.72
2023-05-02T03:47:11.191Z,21.40
2023-05-02T03:48:11.119Z,19.52
2023-05-02T03:49:11.074Z,17.78
2023-05-02T03:50:11.085Z,25.06
2023-05-02T03:51:11.097Z,22.54
2023-05-02T03:52:11.080Z,21.80
2023-05-02T03:53:11.083Z,22.72
2023-05-02T03:54:11.106Z,20.46
2023-05-02T03:55:11.080Z,23.88
2023-05-02T03:56:11.092Z,23.46
2023-05-02T03:57:11.091Z,27.50
2023-05-02T03:58:11.083Z,25.66
2023-05-02T03:59:11.081Z,23.42
2023-05-02T04:00:11.085Z,23.38
2023-05-02T04:01:15.063Z,24.48
2023-05-02T04:02:11.106Z,24.04
2023-05-02T04:03:11.126Z,22.90
2023-05-02T04:04:11.096Z,25.10
2023-05-02T04:05:11.060Z,23.48
2023-05-02T04:06:11.102Z,22.88
2023-05-02T04:07:11.065Z,25.36
2023-05-02T04:08:11.065Z,19.18
2023-05-02T04:09:11.068Z,25.36
2023-05-02T04:10:11.067Z,30.76
2023-05-02T04:11:11.071Z,25.22
2023-05-02T04:12:11.062Z,23.66
2023-05-02T04:13:11.065Z,28.40
2023-05-02T04:14:11.069Z,31.26
2023-05-02T04:15:11.066Z,30.26
2023-05-02T04:16:11.073Z,20.96
2023-05-02T04:17:11.086Z,19.16
2023-05-02T04:18:11.101Z,35.54
2023-05-02T04:19:11.073Z,30.46
2023-05-02T04:20:11.064Z,31.68
2023-05-02T04:21:11.068Z,27.56
2023-05-02T04:22:11.068Z,25.48
2023-05-02T04:23:11.102Z,29.66
2023-05-02T04:24:11.061Z,30.48
2023-05-02T04:25:11.068Z,22.50
2023-05-02T04:26:11.074Z,32.48
2023-05-02T04:27:11.995Z,29.12
2023-05-02T04:28:11.065Z,30.26
2023-05-02T04:29:11.066Z,29.94
2023-05-02T04:30:11.072Z,31.60
2023-05-02T04:31:11.138Z,22.62
2023-05-02T04:32:11.064Z,25.26
2023-05-02T04:33:11.107Z,27.34
2023-05-02T04:34:11.072Z,22.98
2023-05-02T04:35:11.068Z,25.78
2023-05-02T04:36:11.075Z,26.26
2023-05-02T04:37:11.072Z,30.68
2023-05-02T04:38:11.081Z,22.66
2023-05-02T04:39:11.063Z,23.62
2023-05-02T04:40:11.066Z,31.84
2023-05-02T04:41:11.068Z,25.70
2023-05-02T04:42:11.082Z,19.76
2023-05-02T04:43:11.064Z,23.16
2023-05-02T04:44:11.065Z,19.94
2023-05-02T04:45:11.060Z,20.86
2023-05-02T04:46:11.087Z,29.50
2023-05-02T04:47:11.074Z,30.34
2023-05-02T04:48:11.092Z,22.76
2023-05-02T04:49:11.068Z,22.12
2023-05-02T04:50:11.065Z,23.56
2023-05-02T04:51:14.299Z,26.38
2023-05-02T04:52:11.065Z,22.48
2023-05-02T04:53:11.066Z,25.88
2023-05-02T04:54:11.071Z,21.08
2023-05-02T04:55:11.064Z,30.16
2023-05-02T04:56:11.065Z,24.22
2023-05-02T04:57:11.068Z,21.76
2023-05-02T04:58:11.071Z,22.30
2023-05-02T04:59:11.073Z,20.60
2023-05-02T05:00:11.073Z,25.80
2023-05-02T05:01:11.097Z,23.58
2023-05-02T05:02:11.133Z,18.42
2023-05-02T05:03:11.146Z,24.06
2023-05-02T05:04:11.264Z,19.12
2023-05-02T05:05:11.101Z,23.48
2023-05-02T05:06:11.144Z,19.22
2023-05-02T05:07:11.066Z,21.80
2023-05-02T05:08:11.068Z,23.38
2023-05-02T05:09:11.068Z,22.96
2023-05-02T05:10:11.068Z,30.36
2023-05-02T05:11:11.071Z,17.88
2023-05-02T05:12:11.066Z,24.64
2023-05-02T05:13:11.115Z,20.42
2023-05-02T05:14:11.070Z,21.16
2023-05-02T05:15:11.069Z,29.28
2023-05-02T05:16:11.108Z,23.84
2023-05-02T05:17:11.082Z,20.56
2023-05-02T05:18:11.120Z,14.66
2023-05-02T05:19:11.073Z,25.80
2023-05-02T05:20:11.076Z,21.76
2023-05-02T05:21:11.068Z,18.88
2023-05-02T05:22:11.070Z,25.60
2023-05-02T05:23:11.077Z,19.92
2023-05-02T05:24:11.068Z,25.10
2023-05-02T05:25:11.073Z,19.86
2023-05-02T05:26:15.084Z,20.48
2023-05-02T05:27:11.075Z,24.34
2023-05-02T05:28:11.078Z,22.24
2023-05-02T05:29:11.072Z,16.86
2023-05-02T05:30:11.072Z,29.62
2023-05-02T05:31:11.128Z,20.26
2023-05-02T05:32:11.096Z,17.02
2023-05-02T05:33:11.127Z,18.76
2023-05-02T05:34:11.092Z,22.40
2023-05-02T05:35:11.073Z,27.56
2023-05-02T05:36:11.078Z,16.90
2023-05-02T05:37:11.071Z,19.18
2023-05-02T05:38:11.077Z,17.94
2023-05-02T05:39:11.072Z,14.98
2023-05-02T05:40:11.078Z,15.88
2023-05-02T05:41:11.096Z,16.94
2023-05-02T05:42:11.079Z,14.54
2023-05-02T05:43:11.075Z,13.72
2023-05-02T05:44:11.084Z,15.38
2023-05-02T05:45:11.081Z,15.36
2023-05-02T05:46:11.071Z,16.04
2023-05-02T05:47:11.142Z,14.26
2023-05-02T05:48:11.139Z,16.24
2023-05-02T05:49:11.094Z,17.04
2023-05-02T05:50:11.092Z,16.98
2023-05-02T05:51:11.080Z,15.96
2023-05-02T05:52:11.073Z,15.34
2023-05-02T05:53:11.073Z,18.30
2023-05-02T05:54:11.077Z,16.50
2023-05-02T05:55:11.080Z,17.66
2023-05-02T05:56:13.076Z,17.00
2023-05-02T05:57:11.074Z,18.42
2023-05-02T05:58:11.085Z,18.96
2023-05-02T05:59:11.071Z,14.80
2023-05-02T06:00:11.103Z,17.68
2023-05-02T06:01:11.076Z,14.50
2023-05-02T06:02:11.112Z,14.28
2023-05-02T06:03:11.154Z,16.10
2023-05-02T06:04:11.191Z,11.80
2023-05-02T06:05:11.170Z,9.96
2023-05-02T06:06:11.110Z,11.84
2023-05-02T06:07:11.092Z,13.06
2023-05-02T06:08:11.076Z,19.66
2023-05-02T06:09:11.077Z,15.66
2023-05-02T06:10:11.084Z,15.20
2023-05-02T06:11:11.076Z,16.18
2023-05-02T06:12:11.076Z,14.78
2023-05-02T06:13:11.114Z,13.32
2023-05-02T06:14:11.076Z,16.94
2023-05-02T06:15:11.097Z,14.42
2023-05-02T06:16:11.127Z,11.16
2023-05-02T06:17:11.078Z,15.78
2023-05-02T06:18:11.106Z,13.32
2023-05-02T06:19:11.086Z,15.94
2023-05-02T06:20:11.081Z,16.42
2023-05-02T06:21:11.081Z,9.58
2023-05-02T06:22:11.081Z,16.54
2023-05-02T06:23:11.100Z,17.16
2023-05-02T06:24:11.087Z,21.74
2023-05-02T06:25:11.082Z,19.78
2023-05-02T06:26:11.086Z,12.12
2023-05-02T06:27:11.079Z,19.38
2023-05-02T06:28:11.100Z,17.36
2023-05-02T06:29:11.081Z,15.36
2023-05-02T06:30:11.083Z,20.74
2023-05-02T06:31:11.161Z,14.18
2023-05-02T06:32:11.085Z,19.78
2023-05-02T06:33:11.126Z,16.10
2023-05-02T06:34:11.115Z,23.88
2023-05-02T06:35:11.080Z,16.62
2023-05-02T06:36:11.080Z,14.94
2023-05-02T06:37:11.082Z,18.36
2023-05-02T06:38:11.083Z,24.08
2023-05-02T06:39:11.088Z,17.34
2023-05-02T06:40:11.139Z,20.14
2023-05-02T06:41:18.126Z,21.72
2023-05-02T06:42:11.085Z,19.32
2023-05-02T06:43:11.080Z,13.70
2023-05-02T06:44:11.084Z,16.72
2023-05-02T06:45:11.080Z,17.70
2023-05-02T06:46:11.112Z,20.10
2023-05-02T06:47:13.199Z,15.50
2023-05-02T06:48:11.170Z,21.00
2023-05-02T06:49:11.089Z,19.34
2023-05-02T06:50:11.094Z,11.58
2023-05-02T06:51:11.083Z,17.54
2023-05-02T06:52:11.078Z,14.20
2023-05-02T06:53:11.081Z,21.60
2023-05-02T06:54:11.085Z,21.24
2023-05-02T06:55:11.084Z,14.42
2023-05-02T06:56:11.080Z,15.44
2023-05-02T06:57:11.084Z,12.58
2023-05-02T06:58:11.079Z,22.28
2023-05-02T06:59:11.085Z,14.16
2023-05-02T07:00:11.081Z,19.82
2023-05-02T07:01:11.125Z,23.10
2023-05-02T07:02:11.061Z,14.88
2023-05-02T07:03:11.187Z,18.16
2023-05-02T07:04:11.236Z,16.66
2023-05-02T07:05:11.067Z,13.18
2023-05-02T07:06:11.098Z,16.80
2023-05-02T07:07:11.063Z,16.20
2023-05-02T07:08:11.061Z,14.80
2023-05-02T07:09:11.061Z,17.42
2023-05-02T07:10:11.058Z,18.20
2023-05-02T07:11:11.067Z,15.88
2023-05-02T07:12:11.066Z,20.42
2023-05-02T07:13:11.058Z,20.56
2023-05-02T07:14:11.066Z,22.32
2023-05-02T07:15:11.073Z,20.12
2023-05-02T07:16:11.117Z,19.62
2023-05-02T07:17:11.107Z,23.54
2023-05-02T07:18:11.182Z,14.38
2023-05-02T07:19:11.069Z,23.42
2023-05-02T07:20:11.076Z,19.04
2023-05-02T07:21:11.069Z,18.98
2023-05-02T07:22:11.059Z,21.38
2023-05-02T07:23:11.068Z,19.60
2023-05-02T07:24:11.072Z,22.80
2023-05-02T07:25:11.068Z,18.48
2023-05-02T07:26:11.066Z,21.44
2023-05-02T07:27:13.085Z,23.60
2023-05-02T07:28:11.060Z,18.64
2023-05-02T07:29:11.064Z,15.62
2023-05-02T07:30:11.071Z,17.26
2023-05-02T07:31:11.063Z,21.32
2023-05-02T07:32:11.131Z,15.04
2023-05-02T07:33:11.119Z,15.32
2023-05-02T07:34:11.068Z,19.46
2023-05-02T07:35:11.058Z,22.36
2023-05-02T07:36:11.064Z,13.54
2023-05-02T07:37:11.067Z,24.08
2023-05-02T07:38:11.062Z,18.86
2023-05-02T07:39:11.087Z,20.62
2023-05-02T07:40:11.072Z,19.48
2023-05-02T07:41:11.062Z,21.96
2023-05-02T07:42:11.068Z,16.38
2023-05-02T07:43:11.392Z,16.54
2023-05-02T07:44:11.070Z,18.78
2023-05-02T07:45:11.083Z,18.82
2023-05-02T07:46:11.139Z,25.08
2023-05-02T07:47:11.068Z,19.18
2023-05-02T07:48:11.137Z,17.42
2023-05-02T07:49:11.075Z,13.08
2023-05-02T07:50:11.076Z,18.26
2023-05-02T07:51:11.073Z,17.10
2023-05-02T07:52:11.076Z,12.96
2023-05-02T07:53:11.074Z,16.88
2023-05-02T07:54:17.071Z,17.92
2023-05-02T07:55:11.069Z,23.12
2023-05-02T07:56:11.075Z,24.62
2023-05-02T07:57:12.078Z,16.06
2023-05-02T07:58:11.073Z,15.24
2023-05-02T07:59:11.074Z,17.26
2023-05-02T08:00:13.072Z,21.68
2023-05-02T08:01:11.078Z,15.40
2023-05-02T08:02:11.093Z,14.28
2023-05-02T08:03:11.215Z,11.30
2023-05-02T08:04:11.300Z,21.14
2023-05-02T08:05:11.086Z,19.22
2023-05-02T08:06:11.161Z,15.70
2023-05-02T08:07:11.071Z,23.28
2023-05-02T08:08:11.093Z,15.82
2023-05-02T08:09:11.071Z,21.14
2023-05-02T08:10:11.077Z,14.20
2023-05-02T08:11:11.081Z,21.18
2023-05-02T08:12:11.075Z,12.50
2023-05-02T08:13:11.079Z,16.38
2023-05-02T08:14:11.083Z,13.40
2023-05-02T08:15:11.072Z,18.66
2023-05-02T08:16:11.117Z,14.78
2023-05-02T08:17:11.079Z,15.16
2023-05-02T08:18:11.138Z,12.76
2023-05-02T08:19:11.073Z,13.48
2023-05-02T08:20:11.098Z,13.56
2023-05-02T08:21:11.102Z,14.64
2023-05-02T08:22:11.085Z,8.84
2023-05-02T08:23:11.095Z,15.48
2023-05-02T08:24:11.081Z,14.98
2023-05-02T08:25:11.077Z,12.82
2023-05-02T08:26:11.075Z,17.82
2023-05-02T08:27:11.077Z,15.60
2023-05-02T08:28:11.074Z,12.08
2023-05-02T08:29:11.076Z,15.72
2023-05-02T08:30:11.077Z,16.56
2023-05-02T08:31:11.121Z,12.16
2023-05-02T08:32:11.154Z,14.30
2023-05-02T08:33:11.105Z,13.24
2023-05-02T08:34:11.095Z,12.16
2023-05-02T08:35:11.081Z,15.40
2023-05-02T08:36:16.094Z,11.08
2023-05-02T08:37:11.080Z,9.08
2023-05-02T08:38:11.078Z,12.24
2023-05-02T08:39:12.084Z,16.56
2023-05-02T08:40:13.075Z,12.06
2023-05-02T08:41:13.083Z,13.44
2023-05-02T08:42:11.090Z,10.66
2023-05-02T08:43:13.082Z,11.18
2023-05-02T08:44:11.077Z,12.94
2023-05-02T08:45:14.118Z,13.52
2023-05-02T08:46:13.161Z,10.12
2023-05-02T08:47:12.215Z,13.96
2023-05-02T08:48:11.162Z,11.34
2023-05-02T08:49:12.077Z,6.82
2023-05-02T08:50:13.074Z,13.22
2023-05-02T08:51:16.085Z,11.48
2023-05-02T08:52:11.103Z,8.66
2023-05-02T08:53:11.095Z,11.06
2023-05-02T08:54:11.097Z,12.82
2023-05-02T08:55:11.082Z,11.98
2023-05-02T08:56:11.113Z,8.58
2023-05-02T08:57:11.089Z,6.46
2023-05-02T08:58:11.082Z,9.00
2023-05-02T08:59:11.104Z,10.86
2023-05-02T09:00:11.077Z,10.62
2023-05-02T09:01:17.115Z,12.46
2023-05-02T09:02:19.076Z,6.60
2023-05-02T09:03:20.743Z,10.78
2023-05-02T09:04:11.141Z,8.60
2023-05-02T09:05:13.084Z,9.44
2023-05-02T09:06:17.100Z,6.50
2023-05-02T09:07:11.079Z,7.34
2023-05-02T09:08:11.074Z,11.26
2023-05-02T09:09:11.085Z,10.28
2023-05-02T09:10:11.088Z,12.32
2023-05-02T09:11:13.088Z,12.02
2023-05-02T09:12:11.084Z,9.88
2023-05-02T09:13:19.087Z,10.00
2023-05-02T09:14:15.084Z,14.62
2023-05-02T09:15:15.609Z,12.56
2023-05-02T09:16:17.147Z,21.60
2023-05-02T09:17:11.119Z,10.24
2023-05-02T09:18:15.080Z,15.68
2023-05-02T09:19:11.112Z,14.50
2023-05-02T09:20:11.080Z,11.22
2023-05-02T09:21:12.409Z,10.56
2023-05-02T09:22:11.095Z,10.86
2023-05-02T09:23:11.075Z,10.68
2023-05-02T09:24:19.088Z,12.52
2023-05-02T09:25:11.081Z,7.62
2023-05-02T09:26:21.088Z,13.68
2023-05-02T09:27:11.078Z,6.18
2023-05-02T09:28:11.082Z,12.98
2023-05-02T09:29:11.088Z,9.12
2023-05-02T09:30:22.079Z,10.96
2023-05-02T09:31:11.137Z,18.44
2023-05-02T09:32:11.125Z,11.18
2023-05-02T09:33:11.144Z,12.26
2023-05-02T09:34:16.074Z,12.42
2023-05-02T09:35:11.081Z,10.44
2023-05-02T09:36:11.079Z,7.74
2023-05-02T09:37:11.081Z,15.94
2023-05-02T09:38:19.084Z,16.54
2023-05-02T09:39:14.089Z,7.50
2023-05-02T09:40:11.086Z,13.14
2023-05-02T09:41:11.078Z,22.26
2023-05-02T09:42:11.087Z,10.12
2023-05-02T09:43:15.088Z,12.72
2023-05-02T09:44:13.082Z,9.36
2023-05-02T09:45:15.083Z,9.48
2023-05-02T09:46:11.111Z,10.44
2023-05-02T09:47:11.086Z,6.82
2023-05-02T09:48:11.146Z,10.88
2023-05-02T09:49:11.089Z,13.56
2023-05-02T09:50:13.082Z,9.28
2023-05-02T09:51:17.081Z,7.26
2023-05-02T09:52:14.127Z,9.36
2023-05-02T09:53:11.102Z,8.06
2023-05-02T09:54:11.082Z,11.90
2023-05-02T09:55:19.097Z,11.82
2023-05-02T09:56:11.085Z,11.30
2023-05-02T09:57:11.428Z,9.42
2023-05-02T09:58:19.101Z,13.92
2023-05-02T09:59:15.154Z,10.96
2023-05-02T10:00:11.248Z,9.96
2023-05-02T10:01:15.092Z,12.62
2023-05-02T10:02:11.078Z,13.10
2023-05-02T10:03:11.120Z,12.02
2023-05-02T10:04:14.264Z,9.50
2023-05-02T10:05:11.062Z,11.42
2023-05-02T10:06:11.067Z,14.16
2023-05-02T10:07:11.098Z,10.20
2023-05-02T10:08:11.064Z,9.52
2023-05-02T10:09:11.060Z,8.36
2023-05-02T10:10:14.059Z,10.56
2023-05-02T10:11:12.067Z,11.34
2023-05-02T10:12:13.059Z,8.92
2023-05-02T10:13:11.071Z,12.84
2023-05-02T10:14:14.061Z,8.26
2023-05-02T10:15:12.062Z,5.52
2023-05-02T10:16:12.140Z,9.76
2023-05-02T10:17:20.073Z,6.18
2023-05-02T10:18:13.132Z,8.36
2023-05-02T10:19:12.089Z,15.90
2023-05-02T10:20:11.075Z,7.62
2023-05-02T10:21:15.074Z,8.96
2023-05-02T10:22:11.071Z,6.86
2023-05-02T10:23:11.069Z,10.14
2023-05-02T10:24:11.064Z,5.36
2023-05-02T10:25:11.065Z,9.14
2023-05-02T10:26:15.065Z,5.56
2023-05-02T10:27:11.070Z,7.40
2023-05-02T10:28:11.070Z,6.70
2023-05-02T10:29:11.062Z,6.24
2023-05-02T10:30:12.072Z,4.70
2023-05-02T10:31:11.196Z,6.02
2023-05-02T10:32:11.099Z,7.00
2023-05-02T10:33:13.091Z,6.58
2023-05-02T10:34:11.068Z,10.52
2023-05-02T10:35:11.074Z,5.92
2023-05-02T10:36:11.068Z,4.44
2023-05-02T10:37:11.072Z,7.28
2023-05-02T10:38:11.066Z,8.00
2023-05-02T10:39:11.065Z,5.70
2023-05-02T10:40:14.081Z,7.16
2023-05-02T10:41:15.061Z,7.40
2023-05-02T10:42:11.062Z,7.66
2023-05-02T10:43:14.072Z,7.60
2023-05-02T10:44:11.066Z,5.32
2023-05-02T10:45:21.069Z,6.16
2023-05-02T10:46:19.167Z,9.72
2023-05-02T10:47:19.092Z,5.80
2023-05-02T10:48:18.082Z,7.46
2023-05-02T10:49:11.074Z,4.62
2023-05-02T10:50:11.070Z,7.60
2023-05-02T10:51:11.072Z,4.08
2023-05-02T10:52:19.084Z,14.44
2023-05-02T10:53:19.075Z,14.06
2023-05-02T10:54:21.071Z,7.82
2023-05-02T10:55:19.074Z,4.12
2023-05-02T10:56:15.068Z,3.58
2023-05-02T10:57:11.083Z,5.78
2023-05-02T10:58:19.088Z,13.12
2023-05-02T10:59:19.068Z,6.34
2023-05-02T11:00:19.068Z,6.30
2023-05-02T11:01:19.160Z,8.44
2023-05-02T11:02:19.125Z,7.00
2023-05-02T11:03:11.195Z,5.54
2023-05-02T11:04:13.070Z,7.36
2023-05-02T11:05:11.069Z,7.12
2023-05-02T11:06:13.090Z,5.88
2023-05-02T11:07:17.071Z,5.28
2023-05-02T11:08:23.276Z,3.92
2023-05-02T11:09:21.084Z,6.40
2023-05-02T11:10:21.068Z,5.46
2023-05-02T11:11:19.108Z,5.34
2023-05-02T11:12:11.082Z,6.56
2023-05-02T11:13:11.068Z,2.80
2023-05-02T11:14:11.070Z,3.10
2023-05-02T11:15:12.581Z,3.20
2023-05-02T11:16:11.089Z,5.14
2023-05-02T11:17:12.075Z,4.78
2023-05-02T11:18:12.236Z,7.06
2023-05-02T11:19:11.071Z,4.30
2023-05-02T11:20:19.072Z,4.22
2023-05-02T11:21:19.112Z,4.14
2023-05-02T11:22:19.109Z,9.14
2023-05-02T11:23:19.117Z,5.16
2023-05-02T11:24:19.106Z,5.52
2023-05-02T11:25:19.066Z,2.66
2023-05-02T11:26:19.112Z,6.34
2023-05-02T11:27:19.083Z,2.30
2023-05-02T11:28:19.076Z,6.12
2023-05-02T11:29:11.070Z,4.78
2023-05-02T11:30:13.132Z,8.32
2023-05-02T11:31:15.086Z,6.10
2023-05-02T11:32:11.170Z,4.38
2023-05-02T11:33:13.149Z,6.72
2023-05-02T11:34:11.081Z,10.54
2023-05-02T11:35:15.076Z,11.82
2023-05-02T11:36:11.073Z,10.18
2023-05-02T11:37:13.076Z,3.60
2023-05-02T11:38:15.093Z,6.12
2023-05-02T11:39:19.083Z,9.12
2023-05-02T11:40:15.084Z,5.78
2023-05-02T11:41:11.079Z,4.96
2023-05-02T11:42:11.073Z,4.12
2023-05-02T11:43:15.073Z,2.74
2023-05-02T11:44:11.087Z,5.96
2023-05-02T11:45:11.082Z,5.96
2023-05-02T11:46:11.142Z,15.06
2023-05-02T11:47:11.087Z,2.20
2023-05-02T11:48:13.125Z,4.20
2023-05-02T11:49:12.097Z,6.70
2023-05-02T11:50:11.089Z,6.14
2023-05-02T11:51:11.084Z,3.34
2023-05-02T11:52:11.077Z,5.14
2023-05-02T11:53:15.081Z,9.04
2023-05-02T11:54:15.081Z,2.12
2023-05-02T11:55:12.078Z,4.68
2023-05-02T11:56:11.088Z,4.94
2023-05-02T11:57:11.082Z,9.72
2023-05-02T11:58:14.086Z,4.18
2023-05-02T11:59:11.079Z,5.70
2023-05-02T12:00:11.094Z,3.24
2023-05-02T12:01:15.478Z,3.66
2023-05-02T12:02:11.115Z,6.08
2023-05-02T12:03:15.252Z,3.94
2023-05-02T12:04:11.086Z,6.08
2023-05-02T12:05:11.108Z,3.46
2023-05-02T12:06:16.307Z,6.40
2023-05-02T12:08:19.079Z,5.42
2023-05-02T12:09:14.110Z,3.50
2023-05-02T12:10:11.147Z,5.36
2023-05-02T12:11:12.085Z,5.30
2023-05-02T12:12:11.088Z,3.36
2023-05-02T12:13:11.894Z,4.72
2023-05-02T12:14:11.098Z,3.94
2023-05-02T12:15:11.088Z,4.50
2023-05-02T12:16:11.128Z,5.12
2023-05-02T12:17:11.084Z,2.40
2023-05-02T12:18:11.117Z,9.06
2023-05-02T12:19:11.086Z,6.26
2023-05-02T12:20:11.143Z,4.24
2023-05-02T12:21:11.082Z,2.72
2023-05-02T12:22:11.090Z,5.32
2023-05-02T12:23:13.093Z,6.56
2023-05-02T12:24:11.124Z,2.86
2023-05-02T12:25:11.116Z,5.22
2023-05-02T12:26:19.093Z,11.66
2023-05-02T12:27:13.085Z,5.48
2023-05-02T12:28:11.096Z,5.24
2023-05-02T12:29:11.088Z,9.92
2023-05-02T12:30:15.088Z,7.82
2023-05-02T12:31:12.105Z,6.88
2023-05-02T12:32:11.093Z,6.12
2023-05-02T12:33:11.108Z,5.40
2023-05-02T12:34:11.090Z,6.10
2023-05-02T12:35:19.098Z,6.96
2023-05-02T12:36:11.088Z,4.62
2023-05-02T12:37:11.083Z,5.22
2023-05-02T12:38:17.124Z,9.24
2023-05-02T12:39:11.089Z,5.34
2023-05-02T12:40:16.101Z,4.96
2023-05-02T12:41:11.086Z,5.26
2023-05-02T12:42:17.093Z,3.38
2023-05-02T12:43:12.103Z,4.22
2023-05-02T12:44:11.103Z,3.16
2023-05-02T12:45:17.130Z,11.66
2023-05-02T12:46:12.116Z,8.48
2023-05-02T12:47:11.149Z,6.26
2023-05-02T12:48:19.088Z,9.42
2023-05-02T12:49:11.089Z,3.84
2023-05-02T12:50:11.085Z,2.82
2023-05-02T12:51:19.101Z,6.12
2023-05-02T12:52:11.090Z,8.66
2023-05-02T12:53:11.106Z,4.66
2023-05-02T12:54:15.089Z,5.88
2023-05-02T12:55:19.093Z,5.94
2023-05-02T12:56:11.104Z,7.66
2023-05-02T12:57:11.102Z,5.64
2023-05-02T12:58:13.095Z,4.02
2023-05-02T12:59:15.093Z,5.96
2023-05-02T13:00:11.098Z,2.96
2023-05-02T13:01:11.088Z,5.86
2023-05-02T13:02:11.068Z,6.86
2023-05-02T13:03:11.196Z,6.44
2023-05-02T13:04:11.128Z,3.76